Time;durP1;ratioP1;P1;durP2;ratioP2;P2;SDS_P1;SDS_P2;PMS_P1;PMS_P2;Temp;Humidity;BMP_temperature;BMP_pressure;BME280_temperature;BME280_humidity;BME280_pressure;Samples;Min_cycle;Max_cycle;Signal;HPM_P1;HPM_P2
2023/10/23 00:00:47;;;;;;;54.20;51.53;;;4.90;99.90;;;;;;4890488;29;20100;-74
2023/10/23 00:03:13;;;;;;;46.10;43.47;;;5.00;99.90;;;;;;4876808;29;20044;-74
2023/10/23 00:05:39;;;;;;;56.03;53.20;;;5.00;99.90;;;;;;4876794;29;20131;-74
2023/10/23 00:08:05;;;;;;;47.07;44.40;;;5.10;99.90;;;;;;4875700;29;20095;-74
2023/10/23 00:10:31;;;;;;;64.33;60.73;;;5.10;99.90;;;;;;4876014;29;20140;-74
2023/10/23 00:12:56;;;;;;;42.63;40.20;;;5.20;99.90;;;;;;4876064;29;20048;-74
2023/10/23 00:15:22;;;;;;;72.47;68.70;;;5.20;99.90;;;;;;4892412;29;20044;-74
2023/10/23 00:17:48;;;;;;;61.87;58.30;;;5.30;99.90;;;;;;4892042;29;20068;-74
2023/10/23 00:20:14;;;;;;;75.40;71.57;;;5.40;99.90;;;;;;4874944;29;20041;-74
2023/10/23 00:22:40;;;;;;;70.82;66.90;;;5.50;99.90;;;;;;4888090;29;20039;-74
2023/10/23 00:25:05;;;;;;;55.63;52.37;;;5.60;99.90;;;;;;4890108;29;20698;-74
2023/10/23 00:27:31;;;;;;;66.43;62.73;;;5.70;99.90;;;;;;4877844;29;20687;-74
2023/10/23 00:29:57;;;;;;;64.60;61.10;;;5.60;99.90;;;;;;4876975;29;20045;-74
2023/10/23 00:32:23;;;;;;;82.13;77.73;;;5.60;99.90;;;;;;4894088;29;20766;-74
2023/10/23 00:34:48;;;;;;;69.10;65.23;;;5.60;99.90;;;;;;4894563;29;20536;-74
2023/10/23 00:37:14;;;;;;;79.77;75.60;;;5.60;99.90;;;;;;4876955;29;20039;-74
2023/10/23 00:39:40;;;;;;;56.23;52.93;;;5.60;99.90;;;;;;4894760;29;20101;-74
2023/10/23 00:42:06;;;;;;;68.17;63.70;;;5.60;99.90;;;;;;4894161;29;20036;-75
2023/10/23 00:44:31;;;;;;;64.97;61.20;;;5.60;99.90;;;;;;4891856;29;20040;-74
2023/10/23 00:46:57;;;;;;;64.10;60.40;;;5.60;99.90;;;;;;4893745;29;20044;-74
2023/10/23 00:49:23;;;;;;;69.70;65.73;;;5.60;99.90;;;;;;4890222;29;20458;-74
2023/10/23 00:51:50;;;;;;;66.55;62.80;;;5.60;99.90;;;;;;4892983;29;20109;-74
2023/10/23 00:54:16;;;;;;;70.88;66.57;;;5.60;99.90;;;;;;4876309;29;20052;-74
2023/10/23 00:56:43;;;;;;;62.30;58.35;;;5.60;99.90;;;;;;4878151;29;20117;-74
2023/10/23 00:59:10;;;;;;;76.30;71.90;;;5.60;99.90;;;;;;4893314;29;20131;-74
2023/10/23 01:01:36;;;;;;;60.38;56.95;;;5.50;99.90;;;;;;4891182;29;20040;-74
2023/10/23 01:04:04;;;;;;;64.50;60.55;;;5.50;99.90;;;;;;4891174;29;20041;-74
2023/10/23 01:06:31;;;;;;;54.55;51.22;;;5.50;99.90;;;;;;4873786;29;20104;-74
2023/10/23 01:08:57;;;;;;;56.13;52.90;;;5.40;99.90;;;;;;4891977;29;20032;-74
2023/10/23 01:11:23;;;;;;;54.50;51.25;;;5.40;99.90;;;;;;4872238;29;20108;-74
2023/10/23 01:13:49;;;;;;;46.28;43.28;;;5.40;99.90;;;;;;4885817;29;20116;-74
2023/10/23 01:16:15;;;;;;;49.83;47.00;;;5.40;99.90;;;;;;4874009;29;20045;-74
2023/10/23 01:18:41;;;;;;;53.47;50.27;;;5.40;99.90;;;;;;4893064;29;20297;-74
2023/10/23 01:21:06;;;;;;;57.17;54.00;;;5.40;99.90;;;;;;4890689;29;20040;-74
2023/10/23 01:23:35;;;;;;;63.17;59.53;;;5.40;99.90;;;;;;4879341;29;20033;-74
2023/10/23 01:26:01;;;;;;;60.13;56.92;;;5.30;99.90;;;;;;4879730;29;20052;-74
2023/10/23 01:28:27;;;;;;;64.83;61.30;;;5.20;99.90;;;;;;4878454;29;20051;-74
2023/10/23 01:30:52;;;;;;;96.97;91.90;;;5.20;99.90;;;;;;4893860;29;20051;-74
2023/10/23 01:33:18;;;;;;;87.13;82.53;;;5.20;99.90;;;;;;4877285;29;20044;-74
2023/10/23 01:35:44;;;;;;;105.97;101.00;;;5.10;99.90;;;;;;4879521;29;20044;-74
2023/10/23 01:38:13;;;;;;;91.73;87.27;;;5.10;99.90;;;;;;4894655;29;20045;-75
2023/10/23 01:40:38;;;;;;;85.45;80.80;;;5.10;99.90;;;;;;4894201;29;20235;-76
2023/10/23 01:43:04;;;;;;;47.00;44.00;;;5.00;99.90;;;;;;4896339;29;20131;-75
2023/10/23 01:45:30;;;;;;;87.53;83.17;;;5.00;99.90;;;;;;4897506;29;20577;-75
2023/10/23 01:47:56;;;;;;;79.07;74.93;;;4.90;99.90;;;;;;4880638;29;20123;-76
2023/10/23 01:50:21;;;;;;;88.53;83.93;;;4.90;99.90;;;;;;4894933;29;20048;-75
2023/10/23 01:52:47;;;;;;;83.23;79.03;;;4.90;99.90;;;;;;4894018;29;20033;-75
2023/10/23 01:55:13;;;;;;;65.43;61.57;;;4.90;99.90;;;;;;4880042;29;20108;-75
2023/10/23 01:57:38;;;;;;;87.90;83.53;;;4.90;99.90;;;;;;4897835;29;20044;-75
2023/10/23 02:00:06;;;;;;;86.47;82.07;;;4.90;99.90;;;;;;4896011;29;20052;-75
2023/10/23 02:02:33;;;;;;;81.65;77.43;;;4.90;99.90;;;;;;4895899;29;20049;-75
2023/10/23 02:04:59;;;;;;;81.53;76.82;;;4.90;99.90;;;;;;4880253;29;20036;-76
2023/10/23 02:07:27;;;;;;;85.68;81.55;;;4.80;99.90;;;;;;4892880;29;20505;-75
2023/10/23 02:09:53;;;;;;;86.10;81.55;;;4.80;99.90;;;;;;4893289;29;20100;-75
2023/10/23 02:12:19;;;;;;;69.85;66.13;;;4.80;99.90;;;;;;4880678;29;20534;-75
2023/10/23 02:14:44;;;;;;;81.87;77.67;;;4.80;99.90;;;;;;4894894;29;20100;-75
2023/10/23 02:17:10;;;;;;;90.13;85.63;;;4.70;99.90;;;;;;4897889;29;20037;-75
2023/10/23 02:19:36;;;;;;;92.47;87.97;;;4.70;99.90;;;;;;4878139;29;20123;-75
2023/10/23 02:22:02;;;;;;;122.90;116.93;;;4.70;99.90;;;;;;4895853;29;20051;-76
2023/10/23 02:24:27;;;;;;;105.53;100.13;;;4.60;99.90;;;;;;4894201;29;20041;-75
2023/10/23 02:26:54;;;;;;;98.13;92.97;;;4.60;99.90;;;;;;4894282;29;20041;-75
2023/10/23 02:29:20;;;;;;;126.60;120.30;;;4.60;99.90;;;;;;4877973;29;20052;-76
2023/10/23 02:31:45;;;;;;;115.17;109.63;;;4.70;99.90;;;;;;4895137;29;20056;-75
2023/10/23 02:34:11;;;;;;;63.07;59.70;;;4.60;99.90;;;;;;4878864;29;20063;-76
2023/10/23 02:36:37;;;;;;;82.63;78.50;;;4.60;99.90;;;;;;4879308;29;20131;-75
2023/10/23 02:39:03;;;;;;;88.87;84.37;;;4.60;99.90;;;;;;4880403;29;20048;-75
2023/10/23 02:41:29;;;;;;;74.97;71.20;;;4.60;99.90;;;;;;4893986;29;20133;-75
2023/10/23 02:43:55;;;;;;;74.60;70.78;;;4.60;99.90;;;;;;4876797;29;20037;-75
2023/10/23 02:46:21;;;;;;;66.28;62.72;;;4.60;99.90;;;;;;4875138;29;20055;-75
2023/10/23 02:48:47;;;;;;;70.50;67.10;;;4.60;99.90;;;;;;4889558;29;20044;-75
2023/10/23 02:51:12;;;;;;;65.67;62.33;;;4.60;99.90;;;;;;4894479;29;20048;-74
2023/10/23 02:53:38;;;;;;;74.87;71.43;;;4.60;99.90;;;;;;4893207;29;20502;-74
2023/10/23 02:56:13;;;;;;;102.97;98.27;;;4.50;99.90;;;;;;4886221;29;20135;-74
2023/10/23 02:58:38;;;;;;;66.28;62.97;;;4.60;99.90;;;;;;4892252;29;20424;-74
2023/10/23 03:01:15;;;;;;;72.63;68.83;;;4.60;99.90;;;;;;4891157;29;20072;-74
2023/10/23 03:03:41;;;;;;;98.70;93.93;;;4.60;99.90;;;;;;4894672;29;20506;-74
2023/10/23 03:06:07;;;;;;;84.22;80.10;;;4.60;99.90;;;;;;4906038;29;20147;-74
2023/10/23 03:08:33;;;;;;;99.07;94.17;;;4.60;99.90;;;;;;4875004;29;20116;-74
2023/10/23 03:10:59;;;;;;;96.72;91.78;;;4.60;99.90;;;;;;4887439;29;20051;-74
2023/10/23 03:13:24;;;;;;;88.43;84.23;;;4.60;99.90;;;;;;4871911;29;20089;-74
2023/10/23 03:15:50;;;;;;;44.23;41.70;;;4.60;99.90;;;;;;4894920;29;20048;-74
2023/10/23 03:18:16;;;;;;;58.63;55.47;;;4.60;99.90;;;;;;4877547;29;20049;-74
2023/10/23 03:20:42;;;;;;;80.50;76.63;;;4.50;99.90;;;;;;4876037;29;20417;-74
2023/10/23 03:23:08;;;;;;;59.90;56.40;;;4.50;99.90;;;;;;4879611;29;20923;-74
2023/10/23 03:25:34;;;;;;;50.67;47.78;;;4.50;99.90;;;;;;4893154;29;20443;-74
2023/10/23 03:28:00;;;;;;;61.27;58.13;;;4.50;99.90;;;;;;4892789;29;20135;-74
2023/10/23 03:30:25;;;;;;;58.88;55.17;;;4.50;99.90;;;;;;4874570;29;20044;-74
2023/10/23 03:32:51;;;;;;;55.33;51.73;;;4.60;99.90;;;;;;4891800;29;20040;-74
2023/10/23 03:35:17;;;;;;;88.33;83.73;;;4.60;99.90;;;;;;4895429;29;20108;-74
2023/10/23 03:37:43;;;;;;;55.93;52.40;;;4.70;99.90;;;;;;4877405;29;20037;-74
2023/10/23 03:40:10;;;;;;;90.18;85.13;;;4.80;99.90;;;;;;4891468;29;20040;-74
2023/10/23 03:42:36;;;;;;;82.20;77.63;;;4.80;99.90;;;;;;4890345;29;20329;-74
2023/10/23 03:45:02;;;;;;;75.03;70.88;;;4.90;99.90;;;;;;4889431;29;20052;-74
2023/10/23 03:47:28;;;;;;;92.55;87.40;;;4.90;99.90;;;;;;4875193;29;20072;-74
2023/10/23 03:49:54;;;;;;;71.30;67.03;;;5.00;99.90;;;;;;4890772;29;20512;-74
2023/10/23 03:52:20;;;;;;;63.90;59.07;;;5.00;99.90;;;;;;4894511;29;20048;-74
2023/10/23 03:54:45;;;;;;;104.13;98.40;;;5.00;99.90;;;;;;4890175;29;20068;-74
2023/10/23 03:57:11;;;;;;;75.90;70.93;;;5.10;99.90;;;;;;4891568;29;20136;-73
2023/10/23 03:59:41;;;;;;;60.53;56.67;;;5.10;99.90;;;;;;4892221;29;20065;-74
2023/10/23 04:02:07;;;;;;;60.72;56.47;;;5.10;99.90;;;;;;4889512;29;20060;-74
2023/10/23 04:04:32;;;;;;;52.10;48.10;;;5.10;99.90;;;;;;4889904;29;20044;-74
2023/10/23 04:06:58;;;;;;;51.67;47.77;;;5.10;99.90;;;;;;4876045;29;20040;-74
2023/10/23 04:09:24;;;;;;;62.40;58.37;;;5.00;99.90;;;;;;4892914;29;20091;-74
2023/10/23 04:11:49;;;;;;;62.50;58.40;;;5.00;99.90;;;;;;4889753;29;20044;-74
2023/10/23 04:14:15;;;;;;;76.17;71.03;;;5.00;99.90;;;;;;4877783;29;20068;-74
2023/10/23 04:16:42;;;;;;;61.93;57.33;;;5.00;99.90;;;;;;4892438;29;20517;-74
2023/10/23 04:19:08;;;;;;;81.05;75.78;;;5.00;99.90;;;;;;4886489;29;20044;-74
2023/10/23 04:21:39;;;;;;;79.22;74.10;;;5.00;99.90;;;;;;4877344;29;20056;-74
2023/10/23 04:24:06;;;;;;;81.70;76.45;;;5.00;99.90;;;;;;4877779;29;20041;-74
2023/10/23 04:26:32;;;;;;;85.10;79.72;;;5.00;99.90;;;;;;4897596;29;20173;-74
2023/10/23 04:28:57;;;;;;;74.37;69.43;;;5.00;99.90;;;;;;4878986;29;20119;-74
2023/10/23 04:31:23;;;;;;;83.40;78.70;;;4.90;99.90;;;;;;4874101;29;20163;-74
2023/10/23 04:33:49;;;;;;;74.37;68.90;;;4.90;99.90;;;;;;4873681;29;20033;-74
2023/10/23 04:36:14;;;;;;;76.77;71.87;;;4.80;99.90;;;;;;4875274;29;20055;-74
2023/10/23 04:38:40;;;;;;;83.50;78.47;;;4.70;99.90;;;;;;4876318;29;20039;-74
2023/10/23 04:41:05;;;;;;;75.33;70.60;;;4.60;99.90;;;;;;4895509;29;20413;-74
2023/10/23 04:43:33;;;;;;;62.77;58.33;;;4.60;99.90;;;;;;4888231;29;20048;-74
2023/10/23 04:45:59;;;;;;;91.18;85.15;;;4.50;99.90;;;;;;4888943;29;20048;-74
2023/10/23 04:48:25;;;;;;;76.95;71.88;;;4.50;99.90;;;;;;4873910;29;20051;-74
2023/10/23 04:50:50;;;;;;;84.13;78.77;;;4.50;99.90;;;;;;4893611;29;20460;-74
2023/10/23 04:53:16;;;;;;;96.70;91.37;;;4.50;99.90;;;;;;4903650;29;20045;-74
2023/10/23 04:55:42;;;;;;;77.70;73.03;;;4.40;99.90;;;;;;4887550;29;20534;-74
2023/10/23 04:58:08;;;;;;;80.70;75.82;;;4.40;99.90;;;;;;4879413;29;20053;-74
2023/10/23 05:00:35;;;;;;;86.57;81.60;;;4.40;99.90;;;;;;4893563;29;20049;-74
2023/10/23 05:03:03;;;;;;;103.60;97.57;;;4.40;99.90;;;;;;4881959;29;20048;-74
2023/10/23 05:05:32;;;;;;;107.05;101.40;;;4.30;99.90;;;;;;4875965;29;20099;-74
2023/10/23 05:07:58;;;;;;;179.73;171.40;;;4.30;99.90;;;;;;4892598;29;20142;-75
2023/10/23 05:10:24;;;;;;;199.75;190.52;;;4.30;99.90;;;;;;4879365;29;20139;-74
2023/10/23 05:12:49;;;;;;;228.37;217.77;;;4.30;99.90;;;;;;4897699;29;20055;-75
2023/10/23 05:15:17;;;;;;;254.50;243.17;;;4.30;99.90;;;;;;4892844;29;20041;-75
2023/10/23 05:17:43;;;;;;;247.43;235.75;;;4.30;99.90;;;;;;4881577;29;20047;-74
2023/10/23 05:20:08;;;;;;;230.18;219.85;;;4.30;99.90;;;;;;4880077;29;20513;-75
2023/10/23 05:22:34;;;;;;;240.77;230.27;;;4.30;99.90;;;;;;4874456;29;20101;-74
2023/10/23 05:25:00;;;;;;;234.53;223.80;;;4.20;99.90;;;;;;4891820;29;20055;-74
2023/10/23 05:27:26;;;;;;;220.23;210.27;;;4.20;99.90;;;;;;4885190;29;20037;-74
2023/10/23 05:29:52;;;;;;;179.77;171.70;;;4.10;99.90;;;;;;4880157;29;20081;-74
2023/10/23 05:32:18;;;;;;;193.57;185.00;;;4.10;99.90;;;;;;4879674;29;20653;-75
2023/10/23 05:34:44;;;;;;;238.73;228.30;;;4.00;99.90;;;;;;4877808;29;20045;-75
2023/10/23 05:37:10;;;;;;;201.27;192.10;;;4.00;99.90;;;;;;4880054;29;20045;-75
2023/10/23 05:39:36;;;;;;;200.55;191.52;;;4.00;99.90;;;;;;4877505;29;20033;-74
2023/10/23 05:42:03;;;;;;;200.63;191.70;;;4.00;99.90;;;;;;4877929;29;20037;-74
2023/10/23 05:44:28;;;;;;;212.52;203.07;;;4.00;99.90;;;;;;4878568;29;20116;-74
2023/10/23 05:46:54;;;;;;;197.33;188.77;;;4.00;99.90;;;;;;4894102;29;20040;-74
2023/10/23 05:49:20;;;;;;;214.73;205.20;;;4.00;99.90;;;;;;4894993;29;20094;-74
2023/10/23 05:51:45;;;;;;;279.33;267.30;;;4.00;99.90;;;;;;4876413;29;20412;-74
2023/10/23 05:54:12;;;;;;;301.70;288.53;;;4.00;99.90;;;;;;4881137;29;20155;-74
2023/10/23 05:56:37;;;;;;;263.15;251.95;;;3.90;99.90;;;;;;4880028;29;20465;-74
2023/10/23 05:59:03;;;;;;;261.83;250.73;;;3.90;99.90;;;;;;4892790;29;20064;-74
2023/10/23 06:01:29;;;;;;;290.80;278.23;;;3.90;99.90;;;;;;4878337;29;20044;-74
2023/10/23 06:03:55;;;;;;;265.30;253.67;;;3.90;99.90;;;;;;4893090;29;20040;-74
2023/10/23 06:06:21;;;;;;;286.42;273.88;;;3.90;99.90;;;;;;4909042;29;20048;-74
2023/10/23 06:08:47;;;;;;;293.63;280.87;;;3.90;99.90;;;;;;4893240;29;20104;-74
2023/10/23 06:11:13;;;;;;;269.37;257.70;;;3.90;99.90;;;;;;4897169;29;20344;-74
2023/10/23 06:13:39;;;;;;;280.27;268.20;;;3.90;99.90;;;;;;4895467;29;20055;-75
2023/10/23 06:16:07;;;;;;;279.80;267.73;;;3.90;99.90;;;;;;4895527;29;20108;-75
2023/10/23 06:18:34;;;;;;;297.60;284.42;;;3.80;99.90;;;;;;4891771;29;20040;-74
2023/10/23 06:21:04;;;;;;;285.10;272.70;;;3.80;99.90;;;;;;4876916;29;20036;-74
2023/10/23 06:23:38;;;;;;;290.30;277.75;;;3.70;99.90;;;;;;4895670;29;20446;-74
2023/10/23 06:26:08;;;;;;;282.83;270.80;;;3.70;99.90;;;;;;4880054;29;20037;-74
2023/10/23 06:28:34;;;;;;;251.27;240.45;;;3.70;99.90;;;;;;4892186;29;20074;-74
2023/10/23 06:31:08;;;;;;;238.35;228.00;;;3.70;99.90;;;;;;4893459;29;20040;-74
2023/10/23 06:33:35;;;;;;;276.48;263.98;;;3.70;99.90;;;;;;4890542;29;20036;-74
2023/10/23 06:36:03;;;;;;;292.65;279.95;;;3.70;99.90;;;;;;4878087;29;20463;-74
2023/10/23 06:38:29;;;;;;;313.67;300.02;;;3.70;99.90;;;;;;4892349;29;20064;-74
2023/10/23 06:40:55;;;;;;;332.27;317.67;;;3.70;99.90;;;;;;4896134;29;20433;-74
2023/10/23 06:43:21;;;;;;;308.63;295.07;;;3.70;99.90;;;;;;4892738;29;20356;-74
2023/10/23 06:45:46;;;;;;;285.57;273.30;;;3.70;99.90;;;;;;4890307;29;20048;-74
2023/10/23 06:48:14;;;;;;;305.30;291.70;;;3.70;99.90;;;;;;4895130;29;20049;-73
2023/10/23 06:50:46;;;;;;;312.08;298.25;;;3.70;99.90;;;;;;4896185;29;20052;-74
2023/10/23 06:53:14;;;;;;;299.98;287.02;;;3.80;99.90;;;;;;4880370;29;20104;-74
2023/10/23 06:55:51;;;;;;;277.63;265.75;;;3.90;99.90;;;;;;4890508;29;20051;-74
2023/10/23 06:58:19;;;;;;;272.10;260.25;;;3.90;99.90;;;;;;4887153;29;20048;-74
2023/10/23 07:00:45;;;;;;;295.80;282.95;;;3.90;99.90;;;;;;4896209;29;20041;-75
2023/10/23 07:03:11;;;;;;;301.53;288.43;;;4.00;99.90;;;;;;4891713;29;20036;-74
2023/10/23 07:05:37;;;;;;;327.33;313.00;;;3.90;99.90;;;;;;4881870;29;20285;-74
2023/10/23 07:08:03;;;;;;;266.50;254.98;;;4.00;99.90;;;;;;4891440;29;20040;-74
2023/10/23 07:10:35;;;;;;;323.65;309.25;;;4.00;99.90;;;;;;4893487;29;20040;-74
2023/10/23 07:13:02;;;;;;;298.33;285.25;;;4.10;99.90;;;;;;4893928;29;20469;-74
2023/10/23 07:15:28;;;;;;;318.73;304.48;;;4.10;99.90;;;;;;4894916;29;20089;-74
2023/10/23 07:17:54;;;;;;;313.15;299.40;;;4.20;99.90;;;;;;4879735;29;20397;-74
2023/10/23 07:20:19;;;;;;;357.37;341.43;;;4.30;99.90;;;;;;4895322;29;20040;-74
2023/10/23 07:22:45;;;;;;;371.13;354.73;;;4.40;99.90;;;;;;4880212;29;20340;-74
2023/10/23 07:25:11;;;;;;;368.90;352.10;;;4.50;99.90;;;;;;4892823;29;20502;-74
2023/10/23 07:27:39;;;;;;;380.75;363.05;;;4.60;99.90;;;;;;4877091;29;20041;-76
2023/10/23 07:30:05;;;;;;;367.77;351.15;;;4.70;99.90;;;;;;4889157;29;20123;-76
2023/10/23 07:32:31;;;;;;;377.20;360.00;;;4.80;99.90;;;;;;4892448;29;20045;-76
2023/10/23 07:34:57;;;;;;;374.73;357.53;;;4.90;99.90;;;;;;4891377;29;20049;-76
2023/10/23 07:37:23;;;;;;;427.67;407.17;;;5.00;99.90;;;;;;4886163;29;20758;-76
2023/10/23 07:39:49;;;;;;;468.50;445.63;;;5.10;99.90;;;;;;4869391;29;20044;-76
2023/10/23 07:42:15;;;;;;;426.48;406.63;;;5.20;99.90;;;;;;4879371;29;20049;-76
2023/10/23 07:44:44;;;;;;;476.40;453.77;;;5.30;99.90;;;;;;4875646;29;20087;-76
2023/10/23 07:47:10;;;;;;;445.73;424.75;;;5.50;99.90;;;;;;4882184;29;20040;-76
2023/10/23 07:49:36;;;;;;;463.93;441.47;;;5.60;99.90;;;;;;4870476;29;20048;-76
2023/10/23 07:52:02;;;;;;;467.10;444.80;;;5.70;99.90;;;;;;4886115;29;20393;-76
2023/10/23 07:54:28;;;;;;;432.17;410.80;;;5.80;99.90;;;;;;4874008;29;20304;-76
2023/10/23 07:56:57;;;;;;;489.73;465.70;;;5.90;99.90;;;;;;4872825;29;20037;-76
2023/10/23 07:59:23;;;;;;;416.80;397.10;;;6.00;99.90;;;;;;4882163;29;20707;-76
2023/10/23 08:01:52;;;;;;;436.83;416.10;;;6.10;99.90;;;;;;4884267;29;20378;-76
2023/10/23 08:04:18;;;;;;;424.73;404.92;;;6.30;99.90;;;;;;4885213;29;20123;-76
2023/10/23 08:06:44;;;;;;;447.75;426.67;;;6.40;99.90;;;;;;4872203;29;20116;-76
2023/10/23 08:09:11;;;;;;;455.95;434.67;;;6.50;99.90;;;;;;4873793;29;20040;-76
2023/10/23 08:11:37;;;;;;;465.92;443.75;;;6.70;99.90;;;;;;4876281;29;20059;-76
2023/10/23 08:14:04;;;;;;;497.97;473.77;;;6.70;99.90;;;;;;4891965;29;20036;-76
2023/10/23 08:16:30;;;;;;;474.17;451.42;;;6.90;99.90;;;;;;4875654;29;20466;-76
2023/10/23 08:18:57;;;;;;;515.10;489.75;;;7.00;99.90;;;;;;4885958;29;20053;-76
2023/10/23 08:21:25;;;;;;;515.67;491.02;;;7.10;99.90;;;;;;4872269;29;20455;-76
2023/10/23 08:23:56;;;;;;;530.08;504.05;;;7.30;99.90;;;;;;4886484;29;20055;-76
2023/10/23 08:26:23;;;;;;;563.30;534.20;;;7.40;99.90;;;;;;4872456;29;20083;-76
2023/10/23 08:28:49;;;;;;;574.53;544.90;;;7.50;99.90;;;;;;4891357;29;20042;-76
2023/10/23 08:31:15;;;;;;;582.78;553.35;;;7.70;99.90;;;;;;4874179;29;20048;-76
2023/10/23 08:33:41;;;;;;;551.63;524.13;;;7.80;99.90;;;;;;4872803;29;20048;-76
2023/10/23 08:36:07;;;;;;;481.23;456.97;;;7.90;99.90;;;;;;4878057;29;20568;-76
2023/10/23 08:38:33;;;;;;;436.90;416.27;;;8.00;99.90;;;;;;4890680;29;20127;-76
2023/10/23 08:41:01;;;;;;;452.90;431.27;;;8.20;99.90;;;;;;4881432;29;20072;-76
2023/10/23 08:43:27;;;;;;;486.33;462.77;;;8.30;99.90;;;;;;4882722;29;20052;-76
2023/10/23 08:45:54;;;;;;;454.67;432.75;;;8.50;99.90;;;;;;4893431;29;20057;-76
2023/10/23 08:48:21;;;;;;;447.83;427.05;;;8.60;99.90;;;;;;4892739;29;20040;-76
2023/10/23 08:50:48;;;;;;;440.55;419.92;;;8.70;99.90;;;;;;4894931;29;20044;-76
2023/10/23 08:53:15;;;;;;;411.85;392.48;;;8.80;99.90;;;;;;4879168;29;20127;-76
2023/10/23 08:55:42;;;;;;;422.15;402.83;;;9.00;99.90;;;;;;4890951;29;20055;-76
2023/10/23 08:58:09;;;;;;;397.63;378.92;;;9.00;99.90;;;;;;4874885;29;20048;-76
2023/10/23 09:00:35;;;;;;;404.17;385.52;;;9.10;99.90;;;;;;4892877;29;20099;-76
2023/10/23 09:03:04;;;;;;;445.27;423.87;;;9.20;99.90;;;;;;4894165;29;20701;-76
2023/10/23 09:05:30;;;;;;;395.23;376.77;;;9.40;99.90;;;;;;4879130;29;20608;-76
2023/10/23 09:07:56;;;;;;;385.33;367.37;;;9.50;99.90;;;;;;4890031;29;20136;-76
2023/10/23 09:10:21;;;;;;;437.85;417.33;;;9.60;99.90;;;;;;4878762;29;20457;-76
2023/10/23 09:12:56;;;;;;;429.23;408.80;;;9.70;99.90;;;;;;4885173;29;20044;-76
2023/10/23 09:15:23;;;;;;;380.15;362.92;;;9.80;99.90;;;;;;4893469;29;20045;-76
2023/10/23 09:17:49;;;;;;;431.07;410.93;;;9.90;99.90;;;;;;4896953;29;20517;-76
2023/10/23 09:20:26;;;;;;;386.70;369.30;;;10.00;99.90;;;;;;4894073;29;20337;-76
2023/10/23 09:22:52;;;;;;;373.77;356.97;;;10.10;99.90;;;;;;4882067;29;20303;-76
2023/10/23 09:25:22;;;;;;;379.03;361.50;;;10.20;99.90;;;;;;4891497;29;20296;-76
2023/10/23 09:27:49;;;;;;;432.20;412.57;;;10.30;99.90;;;;;;4876878;29;20289;-76
2023/10/23 09:30:21;;;;;;;436.33;416.10;;;10.40;99.90;;;;;;4880009;29;20292;-77
2023/10/23 09:32:54;;;;;;;516.43;491.97;;;10.50;99.90;;;;;;4894080;29;20289;-76
2023/10/23 09:35:29;;;;;;;449.27;428.03;;;10.60;99.90;;;;;;4910073;29;20296;-76
2023/10/23 09:37:56;;;;;;;483.20;460.27;;;10.70;99.90;;;;;;4894715;29;20337;-77
2023/10/23 09:40:23;;;;;;;489.00;465.63;;;10.80;99.90;;;;;;4894536;29;20079;-76
2023/10/23 09:42:50;;;;;;;466.97;445.20;;;10.90;99.90;;;;;;4882135;29;20292;-76
2023/10/23 09:45:16;;;;;;;511.73;486.87;;;11.00;99.90;;;;;;4899634;29;20284;-76
2023/10/23 09:47:45;;;;;;;458.73;437.47;;;11.10;99.90;;;;;;4884320;29;20306;-75
2023/10/23 09:50:11;;;;;;;431.97;411.80;;;11.10;99.90;;;;;;4887806;29;20048;-75
2023/10/23 09:52:37;;;;;;;460.47;438.47;;;11.20;99.90;;;;;;4883081;29;20642;-75
2023/10/23 09:55:07;;;;;;;404.80;386.23;;;11.30;99.90;;;;;;4890064;29;20131;-75
2023/10/23 09:57:36;;;;;;;427.70;407.50;;;11.40;99.90;;;;;;4897455;29;20044;-75
2023/10/23 10:00:13;;;;;;;406.93;388.20;;;11.50;99.90;;;;;;4897068;29;20716;-75
2023/10/23 10:02:58;;;;;;;370.17;353.60;;;11.60;99.90;;;;;;4903235;29;20292;-75
2023/10/23 10:05:37;;;;;;;336.87;322.03;;;11.70;99.90;;;;;;4879203;29;20293;-75
2023/10/23 10:08:06;;;;;;;326.60;312.70;;;11.80;99.90;;;;;;4898928;29;20288;-75
2023/10/23 10:10:33;;;;;;;255.40;243.87;;;11.90;99.90;;;;;;4888965;29;20765;-75
2023/10/23 10:12:58;;;;;;;225.07;215.80;;;12.00;99.90;;;;;;4899487;29;20379;-75
2023/10/23 10:15:25;;;;;;;197.60;189.37;;;12.10;99.90;;;;;;4879294;29;20884;-75
2023/10/23 10:17:51;;;;;;;136.27;130.53;;;12.20;99.90;;;;;;4900868;29;20047;-75
2023/10/23 10:20:22;;;;;;;152.53;145.87;;;12.30;99.90;;;;;;4893087;29;20344;-75
2023/10/23 10:22:53;;;;;;;112.17;107.27;;;12.50;99.90;;;;;;4880010;29;20296;-75
2023/10/23 10:25:20;;;;;;;196.93;188.53;;;12.60;99.90;;;;;;4902740;29;20781;-75
2023/10/23 10:27:58;;;;;;;104.37;99.67;;;12.70;99.90;;;;;;4879906;29;20397;-75
2023/10/23 10:30:50;;;;;;;159.80;153.13;;;12.80;99.90;;;;;;4897807;29;20806;-75
2023/10/23 10:33:23;;;;;;;160.00;153.13;;;12.80;99.90;;;;;;4881006;29;20288;-75
2023/10/23 10:36:03;;;;;;;200.70;192.30;;;12.90;99.90;;;;;;4892662;29;20306;-75
2023/10/23 10:38:30;;;;;;;266.20;255.23;;;13.00;99.90;;;;;;4891726;29;20643;-75
2023/10/23 10:41:16;;;;;;;300.27;287.73;;;13.10;99.90;;;;;;4900809;29;20368;-75
2023/10/23 10:43:45;;;;;;;172.97;165.77;;;13.10;99.90;;;;;;4895373;29;20289;-75
2023/10/23 10:46:25;;;;;;;186.37;178.87;;;13.20;99.90;;;;;;4894166;29;20308;-75
2023/10/23 10:48:55;;;;;;;206.23;197.83;;;13.20;99.90;;;;;;4891699;29;20285;-75
2023/10/23 10:51:23;;;;;;;211.37;202.60;;;13.30;99.90;;;;;;4904633;29;20291;-75
2023/10/23 10:54:03;;;;;;;469.57;448.13;;;13.30;99.90;;;;;;4895451;29;20304;-75
2023/10/23 10:56:29;;;;;;;386.53;369.57;;;13.30;99.90;;;;;;4896636;29;20343;-75
2023/10/23 10:58:59;;;;;;;370.97;354.70;;;13.30;99.90;;;;;;4892834;29;20377;-75
2023/10/23 11:01:25;;;;;;;389.70;372.37;;;13.30;99.90;;;;;;4889471;29;20757;-75
2023/10/23 11:03:51;;;;;;;415.43;397.00;;;13.40;99.90;;;;;;4894317;29;20340;-75
2023/10/23 11:06:17;;;;;;;395.83;378.17;;;13.40;99.90;;;;;;4880197;29;20041;-75
2023/10/23 11:08:42;;;;;;;401.93;384.33;;;13.50;99.90;;;;;;4895413;29;20371;-75
2023/10/23 11:11:08;;;;;;;411.07;392.83;;;13.50;99.90;;;;;;4882467;29;20040;-75
2023/10/23 11:13:34;;;;;;;442.17;422.50;;;13.50;99.90;;;;;;4898808;29;20083;-75
2023/10/23 11:16:00;;;;;;;344.23;329.53;;;13.50;99.90;;;;;;4887196;29;20183;-75
2023/10/23 11:18:27;;;;;;;307.20;294.17;;;13.60;99.90;;;;;;4878258;29;20048;-74
2023/10/23 11:21:00;;;;;;;282.73;270.77;;;13.70;99.90;;;;;;4892553;29;20103;-73
2023/10/23 11:23:30;;;;;;;282.10;270.13;;;13.80;99.90;;;;;;4903113;29;20281;-73
2023/10/23 11:25:56;;;;;;;373.00;356.63;;;13.80;99.20;;;;;;4878844;29;20292;-73
2023/10/23 11:28:22;;;;;;;426.60;407.37;;;13.80;99.90;;;;;;4876921;29;20396;-73
2023/10/23 11:30:53;;;;;;;360.50;344.80;;;13.80;99.90;;;;;;4887579;29;20305;-74
2023/10/23 11:33:19;;;;;;;376.00;359.47;;;13.80;99.30;;;;;;4880197;29;20324;-74
2023/10/23 11:35:45;;;;;;;401.50;383.87;;;13.90;99.90;;;;;;4883154;29;20347;-74
2023/10/23 11:38:15;;;;;;;391.30;373.43;;;13.90;99.90;;;;;;4877752;29;20545;-74
2023/10/23 11:40:42;;;;;;;380.20;363.43;;;13.80;95.20;;;;;;4894307;29;20049;-74
2023/10/23 11:43:13;;;;;;;355.53;340.13;;;13.90;96.20;;;;;;4910421;29;20323;-74
2023/10/23 11:45:40;;;;;;;384.63;367.83;;;13.90;97.10;;;;;;4879022;29;20297;-74
2023/10/23 11:48:12;;;;;;;372.03;355.67;;;13.90;93.90;;;;;;4892301;29;20327;-74
2023/10/23 11:50:40;;;;;;;353.03;337.40;;;14.00;97.50;;;;;;4896152;29;20360;-74
2023/10/23 11:53:06;;;;;;;375.27;358.97;;;14.00;98.60;;;;;;4895643;29;20289;-75
2023/10/23 11:55:33;;;;;;;282.77;270.93;;;14.00;94.80;;;;;;4883429;29;20348;-74
2023/10/23 11:57:59;;;;;;;304.73;291.87;;;14.00;92.50;;;;;;4893441;29;20288;-74
2023/10/23 12:00:25;;;;;;;361.47;345.73;;;14.10;94.70;;;;;;4895970;29;20300;-74
2023/10/23 12:02:51;;;;;;;345.67;330.63;;;14.10;95.50;;;;;;4891661;29;20645;-74
2023/10/23 12:05:19;;;;;;;379.30;362.63;;;14.10;91.50;;;;;;4894368;29;20393;-75
2023/10/23 12:07:52;;;;;;;386.17;369.47;;;14.10;92.70;;;;;;4876244;29;20867;-74
2023/10/23 12:10:19;;;;;;;350.03;334.53;;;14.00;91.10;;;;;;4876341;29;20292;-73
2023/10/23 12:12:46;;;;;;;333.27;318.93;;;14.00;90.90;;;;;;4878916;29;20389;-73
2023/10/23 12:15:14;;;;;;;332.20;318.17;;;14.00;91.00;;;;;;4893792;29;20680;-74
2023/10/23 12:17:41;;;;;;;333.07;318.97;;;13.90;90.50;;;;;;4881013;29;20292;-73
2023/10/23 12:20:09;;;;;;;350.57;335.20;;;13.90;91.40;;;;;;4878842;29;20331;-73
2023/10/23 12:22:41;;;;;;;355.30;339.93;;;13.80;90.60;;;;;;4886246;29;20893;-73